createdAt,value
2023-02-06T00:00:38.298Z,86.09
2023-02-06T00:03:05.450Z,86.81
2023-02-06T00:05:32.202Z,85.96
2023-02-06T00:07:58.615Z,86.76
2023-02-06T00:10:24.967Z,86.13
2023-02-06T00:12:51.321Z,86.39
2023-02-06T00:15:18.077Z,86.97
2023-02-06T00:17:44.455Z,86.60
2023-02-06T00:20:11.727Z,86.49
2023-02-06T00:22:38.397Z,86.82
2023-02-06T00:25:05.324Z,87.10
2023-02-06T00:27:31.838Z,86.55
2023-02-06T00:29:58.574Z,86.34
2023-02-06T00:32:25.000Z,87.12
2023-02-06T00:34:51.328Z,87.67
2023-02-06T00:37:17.909Z,87.00
2023-02-06T00:39:44.271Z,86.96
2023-02-06T00:42:10.800Z,87.46
2023-02-06T00:44:37.930Z,87.30
2023-02-06T00:47:04.266Z,87.46
2023-02-06T00:49:30.598Z,87.38
2023-02-06T00:51:56.902Z,86.78
2023-02-06T00:54:23.217Z,87.84
2023-02-06T00:56:49.555Z,87.25
2023-02-06T00:59:16.032Z,87.61
2023-02-06T01:01:42.445Z,86.46
2023-02-06T01:04:08.857Z,86.63
2023-02-06T01:06:37.558Z,87.24
2023-02-06T01:09:04.344Z,87.41
2023-02-06T01:11:30.714Z,88.21
2023-02-06T01:13:57.617Z,87.49
2023-02-06T01:16:24.771Z,87.66
2023-02-06T01:18:52.982Z,87.16
2023-02-06T01:21:23.243Z,88.02
2023-02-06T01:23:52.458Z,88.03
2023-02-06T01:26:21.316Z,86.99
2023-02-06T01:28:48.998Z,88.50
2023-02-06T01:31:23.870Z,87.67
2023-02-06T01:33:51.540Z,87.90
2023-02-06T01:36:19.396Z,88.21
2023-02-06T01:38:46.539Z,88.59
2023-02-06T01:41:13.658Z,88.46
2023-02-06T01:43:45.815Z,87.90
2023-02-06T01:46:12.592Z,87.70
2023-02-06T01:48:49.622Z,88.23
2023-02-06T01:51:23.621Z,88.68
2023-02-06T01:53:55.817Z,87.95
2023-02-06T01:56:22.346Z,88.14
2023-02-06T01:58:53.409Z,88.19
2023-02-06T02:01:20.955Z,87.91
2023-02-06T02:03:50.291Z,89.33
2023-02-06T02:06:20.662Z,89.06
2023-02-06T02:08:49.822Z,88.90
2023-02-06T02:11:26.850Z,88.66
2023-02-06T02:13:54.493Z,88.02
2023-02-06T02:16:49.728Z,88.52
2023-02-06T02:19:53.707Z,89.21
2023-02-06T02:22:32.668Z,89.29
2023-02-06T02:25:17.925Z,88.47
2023-02-06T02:28:02.931Z,89.37
2023-02-06T02:30:59.666Z,88.24
2023-02-06T02:33:30.423Z,88.72
2023-02-06T02:36:08.399Z,88.57
2023-02-06T02:38:39.761Z,88.50
2023-02-06T02:41:21.946Z,89.44
2023-02-06T02:44:01.237Z,88.54
2023-02-06T02:46:44.744Z,88.59
2023-02-06T02:49:15.235Z,89.05
2023-02-06T02:51:42.687Z,89.12
2023-02-06T02:54:09.628Z,88.68
2023-02-06T02:56:37.508Z,89.69
2023-02-06T02:59:13.166Z,89.11
2023-02-06T03:01:48.321Z,88.94
2023-02-06T03:04:20.927Z,89.93
2023-02-06T03:06:59.539Z,88.62
2023-02-06T03:09:45.650Z,89.19
2023-02-06T03:12:22.840Z,89.26
2023-02-06T03:14:58.138Z,89.92
2023-02-06T03:17:35.786Z,88.77
2023-02-06T03:20:05.610Z,89.28
2023-02-06T03:22:33.390Z,90.02
2023-02-06T03:25:02.752Z,89.96
2023-02-06T03:27:30.987Z,88.79
2023-02-06T03:29:58.948Z,89.48
2023-02-06T03:32:29.662Z,88.89
2023-02-06T03:35:16.132Z,88.70
2023-02-06T03:37:42.955Z,89.17
2023-02-06T03:40:10.911Z,89.57
2023-02-06T03:42:45.458Z,89.14
2023-02-06T03:45:16.828Z,89.85
2023-02-06T03:47:46.490Z,89.17
2023-02-06T03:50:15.214Z,88.99
2023-02-06T03:52:46.987Z,89.00
2023-02-06T03:55:17.980Z,89.70
2023-02-06T03:57:50.164Z,89.98
2023-02-06T04:00:16.992Z,89.75
2023-02-06T04:02:47.310Z,89.30
2023-02-06T04:05:16.319Z,90.01
2023-02-06T04:07:42.830Z,89.82
2023-02-06T04:10:09.458Z,89.83
2023-02-06T04:12:36.100Z,89.30
2023-02-06T04:15:02.843Z,89.70
2023-02-06T04:17:46.434Z,89.59
2023-02-06T04:20:15.674Z,89.23
2023-02-06T04:22:42.470Z,89.93
2023-02-06T04:25:08.858Z,89.41
2023-02-06T04:27:36.795Z,90.58
2023-02-06T04:30:04.568Z,90.16
2023-02-06T04:32:30.901Z,90.16
2023-02-06T04:34:57.279Z,89.98
2023-02-06T04:37:23.716Z,89.99
2023-02-06T04:39:50.042Z,90.54
2023-02-06T04:42:16.360Z,90.65
2023-02-06T04:44:42.733Z,90.35
2023-02-06T04:47:09.082Z,89.50
2023-02-06T04:49:35.428Z,90.44
2023-02-06T04:52:01.769Z,89.91
2023-02-06T04:54:28.168Z,90.35
2023-02-06T04:56:54.601Z,89.64
2023-02-06T04:59:20.954Z,90.09
2023-02-06T05:01:48.071Z,90.22
2023-02-06T05:04:14.459Z,90.37
2023-02-06T05:06:40.791Z,89.71
2023-02-06T05:09:07.177Z,90.32
2023-02-06T05:11:33.792Z,90.77
2023-02-06T05:14:00.140Z,90.28
2023-02-06T05:16:26.723Z,89.79
2023-02-06T05:18:55.293Z,90.06
2023-02-06T05:21:22.896Z,90.29
2023-02-06T05:23:49.354Z,90.72
2023-02-06T05:26:16.044Z,90.34
2023-02-06T05:28:42.435Z,90.54
2023-02-06T05:31:09.122Z,90.58
2023-02-06T05:33:35.549Z,91.20
2023-02-06T05:36:07.180Z,91.09
2023-02-06T05:38:33.931Z,91.49
2023-02-06T05:41:00.682Z,91.09
2023-02-06T05:43:27.062Z,91.06
2023-02-06T05:45:53.528Z,91.69
2023-02-06T05:48:19.950Z,90.76
2023-02-06T05:50:49.429Z,91.87
2023-02-06T05:53:17.168Z,91.17
2023-02-06T05:55:43.538Z,91.40
2023-02-06T05:58:11.378Z,91.82
2023-02-06T06:00:37.865Z,91.59
2023-02-06T06:03:04.309Z,90.81
2023-02-06T06:05:30.631Z,90.99
2023-02-06T06:07:56.960Z,91.70
2023-02-06T06:10:23.353Z,91.38
2023-02-06T06:12:49.753Z,91.38
2023-02-06T06:15:16.210Z,91.60
2023-02-06T06:17:42.534Z,92.46
2023-02-06T06:20:09.323Z,91.70
2023-02-06T06:22:35.688Z,92.56
2023-02-06T06:25:02.111Z,92.65
2023-02-06T06:27:28.439Z,92.77
2023-02-06T06:29:54.799Z,92.70
2023-02-06T06:32:21.792Z,92.17
2023-02-06T06:34:48.114Z,92.64
2023-02-06T06:37:14.502Z,93.08
2023-02-06T06:39:40.953Z,92.72
2023-02-06T06:42:08.068Z,92.94
2023-02-06T06:44:34.396Z,91.90
2023-02-06T06:47:00.809Z,92.32
2023-02-06T06:49:28.980Z,92.98
2023-02-06T06:51:55.419Z,92.41
2023-02-06T06:54:22.706Z,91.70
2023-02-06T06:56:49.048Z,92.44
2023-02-06T06:59:15.408Z,92.24
2023-02-06T07:01:41.763Z,91.87
2023-02-06T07:04:08.229Z,92.85
2023-02-06T07:06:34.606Z,92.45
2023-02-06T07:09:00.951Z,92.50
2023-02-06T07:11:27.578Z,93.08
2023-02-06T07:13:53.879Z,93.11
2023-02-06T07:16:20.284Z,93.37
2023-02-06T07:18:47.283Z,92.42
2023-02-06T07:21:15.776Z,92.25
2023-02-06T07:23:42.338Z,92.13
2023-02-06T07:26:08.773Z,92.72
2023-02-06T07:28:35.140Z,91.95
2023-02-06T07:31:02.563Z,91.91
2023-02-06T07:33:28.979Z,91.97
2023-02-06T07:35:55.403Z,91.82
2023-02-06T07:38:21.986Z,91.99
2023-02-06T07:40:48.316Z,92.16
2023-02-06T07:43:14.735Z,92.73
2023-02-06T07:45:41.463Z,92.75
2023-02-06T07:48:08.117Z,93.30
2023-02-06T07:50:35.115Z,92.41
2023-02-06T07:53:02.355Z,92.38
2023-02-06T07:55:29.576Z,92.76
2023-02-06T07:57:56.246Z,92.01
2023-02-06T08:00:22.683Z,92.53
2023-02-06T08:02:49.017Z,91.46
2023-02-06T08:05:15.355Z,92.92
2023-02-06T08:07:41.717Z,91.54
2023-02-06T08:10:08.583Z,92.12
2023-02-06T08:12:34.905Z,91.72
2023-02-06T08:15:01.310Z,92.02
2023-02-06T08:17:28.041Z,92.73
2023-02-06T08:19:54.424Z,91.86
2023-02-06T08:22:20.879Z,92.00
2023-02-06T08:24:47.578Z,91.88
2023-02-06T08:27:13.928Z,92.39
2023-02-06T08:29:42.446Z,92.47
2023-02-06T08:32:09.888Z,92.68
2023-02-06T08:34:38.001Z,92.85
2023-02-06T08:37:04.438Z,91.92
2023-02-06T08:39:30.834Z,92.25
2023-02-06T08:41:57.179Z,92.79
2023-02-06T08:44:23.570Z,93.39
2023-02-06T08:46:56.186Z,92.35
2023-02-06T08:49:26.919Z,92.40
2023-02-06T08:51:54.735Z,93.60
2023-02-06T08:54:23.275Z,92.56
2023-02-06T08:56:51.412Z,93.44
2023-02-06T08:59:19.427Z,92.50
2023-02-06T09:01:46.559Z,93.22
2023-02-06T09:04:14.015Z,93.63
2023-02-06T09:06:42.972Z,92.99
2023-02-06T09:09:11.103Z,92.69
2023-02-06T09:11:38.663Z,92.54
2023-02-06T09:14:07.295Z,92.46
2023-02-06T09:16:34.757Z,92.62
2023-02-06T09:19:02.227Z,92.94
2023-02-06T09:21:30.917Z,92.78
2023-02-06T09:24:01.557Z,93.47
2023-02-06T09:26:30.769Z,92.68
2023-02-06T09:29:02.912Z,93.14
2023-02-06T09:31:30.641Z,92.58
2023-02-06T09:33:57.888Z,92.10
2023-02-06T09:36:24.306Z,92.22
2023-02-06T09:38:57.121Z,93.23
2023-02-06T09:41:26.499Z,92.64
2023-02-06T09:43:57.792Z,92.53
2023-02-06T09:46:28.963Z,92.54
2023-02-06T09:48:58.523Z,92.80
2023-02-06T09:51:48.101Z,92.23
2023-02-06T09:54:39.112Z,93.05
2023-02-06T09:57:12.906Z,92.99
2023-02-06T09:59:44.914Z,92.96
2023-02-06T10:02:47.616Z,92.54
2023-02-06T10:05:25.004Z,92.50
2023-02-06T10:08:23.857Z,92.35
2023-02-06T10:10:54.828Z,92.65
2023-02-06T10:13:38.589Z,91.83
2023-02-06T10:16:19.508Z,92.30
2023-02-06T10:18:49.962Z,91.96
2023-02-06T10:21:51.914Z,92.14
2023-02-06T10:24:24.371Z,92.18
2023-02-06T10:26:53.482Z,92.27
2023-02-06T10:29:29.167Z,92.03
2023-02-06T10:32:34.220Z,92.32
2023-02-06T10:35:10.386Z,91.95
2023-02-06T10:37:58.943Z,92.05
2023-02-06T10:40:43.041Z,92.37
2023-02-06T10:43:54.245Z,91.96
2023-02-06T10:46:40.052Z,92.15
2023-02-06T10:49:25.566Z,92.07
2023-02-06T10:51:58.293Z,91.62
2023-02-06T10:54:31.585Z,91.72
2023-02-06T10:57:00.536Z,91.34
2023-02-06T10:59:34.264Z,91.48
2023-02-06T11:02:17.365Z,91.03
2023-02-06T11:05:03.393Z,91.42
2023-02-06T11:07:36.490Z,91.35
2023-02-06T11:10:06.994Z,91.75
2023-02-06T11:12:40.816Z,91.54
2023-02-06T11:15:32.542Z,90.78
2023-02-06T11:18:01.160Z,91.31
2023-02-06T11:20:31.843Z,90.97
2023-02-06T11:23:26.978Z,91.17
2023-02-06T11:25:58.853Z,91.07
2023-02-06T11:28:26.451Z,90.49
2023-02-06T11:31:02.458Z,91.01
2023-02-06T11:33:47.318Z,91.36
2023-02-06T11:36:25.568Z,91.37
2023-02-06T11:38:56.086Z,91.04
2023-02-06T11:41:22.552Z,90.67
2023-02-06T11:43:50.742Z,90.57
2023-02-06T11:46:27.855Z,89.75
2023-02-06T11:48:54.180Z,89.46
2023-02-06T11:51:21.571Z,89.84
2023-02-06T11:54:02.552Z,90.32
2023-02-06T11:56:30.627Z,90.37
2023-02-06T11:59:19.324Z,90.08
2023-02-06T12:01:47.497Z,89.42
2023-02-06T12:04:42.571Z,89.08
2023-02-06T12:07:36.819Z,89.47
2023-02-06T12:10:13.389Z,88.76
2023-02-06T12:12:45.605Z,88.81
2023-02-06T12:15:44.815Z,88.40
2023-02-06T12:18:20.552Z,88.74
2023-02-06T12:20:50.992Z,88.05
2023-02-06T12:23:28.499Z,88.30
2023-02-06T12:25:59.518Z,87.93
2023-02-06T12:28:36.883Z,87.59
2023-02-06T12:31:10.996Z,87.26
2023-02-06T12:33:44.104Z,87.32
2023-02-06T12:36:20.750Z,87.28
2023-02-06T12:39:16.641Z,86.85
2023-02-06T12:42:09.386Z,86.90
2023-02-06T12:44:47.808Z,86.75
2023-02-06T12:47:29.223Z,87.13
2023-02-06T12:50:16.121Z,86.99
2023-02-06T12:52:51.516Z,86.66
2023-02-06T12:55:22.553Z,86.95
2023-02-06T12:57:49.601Z,86.46
2023-02-06T13:00:34.331Z,86.78
2023-02-06T13:03:06.701Z,87.01
2023-02-06T13:05:42.995Z,87.26
2023-02-06T13:08:14.580Z,86.72
2023-02-06T13:10:42.418Z,86.72
2023-02-06T13:13:27.154Z,86.44
2023-02-06T13:15:55.247Z,86.33
2023-02-06T13:18:50.669Z,86.81
2023-02-06T13:21:19.569Z,86.96
2023-02-06T13:24:19.080Z,86.90
2023-02-06T13:26:51.297Z,87.48
2023-02-06T13:29:25.747Z,86.83
2023-02-06T13:32:10.811Z,86.83
2023-02-06T13:34:43.117Z,86.30
2023-02-06T13:37:19.844Z,86.44
2023-02-06T13:39:47.705Z,86.05
2023-02-06T13:42:46.364Z,86.15
2023-02-06T13:45:35.912Z,85.59
2023-02-06T13:48:05.556Z,85.72
2023-02-06T13:50:57.286Z,85.99
2023-02-06T13:53:26.470Z,85.46
2023-02-06T13:56:22.031Z,85.43
2023-02-06T13:58:51.561Z,84.96
2023-02-06T14:01:25.943Z,84.88
2023-02-06T14:03:54.067Z,84.84
2023-02-06T14:06:32.034Z,84.51
2023-02-06T14:09:10.500Z,84.11
2023-02-06T14:12:14.954Z,84.25
2023-02-06T14:14:51.182Z,84.25
2023-02-06T14:17:46.321Z,84.40
2023-02-06T14:20:42.337Z,84.00
2023-02-06T14:23:14.567Z,83.90
2023-02-06T14:25:59.159Z,83.20
2023-02-06T14:28:50.821Z,83.04
2023-02-06T14:31:37.465Z,83.21
2023-02-06T14:34:18.113Z,83.11
2023-02-06T14:37:02.765Z,83.33
2023-02-06T14:39:42.469Z,83.39
2023-02-06T14:42:18.426Z,83.35
2023-02-06T14:44:50.414Z,83.59
2023-02-06T14:47:22.366Z,83.55
2023-02-06T14:49:49.356Z,83.58
2023-02-06T14:52:21.416Z,83.02
2023-02-06T14:54:47.844Z,82.93
2023-02-06T14:57:19.793Z,83.22
2023-02-06T15:00:13.605Z,83.15
2023-02-06T15:02:40.122Z,83.44
2023-02-06T15:05:06.579Z,83.65
2023-02-06T15:07:38.710Z,83.63
2023-02-06T15:10:15.951Z,83.56
2023-02-06T15:12:51.244Z,83.38
2023-02-06T15:15:24.039Z,83.53
2023-02-06T15:18:01.412Z,83.51
2023-02-06T15:20:40.125Z,83.87
2023-02-06T15:23:18.055Z,83.49
2023-02-06T15:25:59.340Z,83.59
2023-02-06T15:28:29.033Z,83.69
2023-02-06T15:30:59.080Z,83.52
2023-02-06T15:33:28.518Z,83.82
2023-02-06T15:35:57.673Z,84.03
2023-02-06T15:38:26.355Z,83.93
2023-02-06T15:40:57.812Z,83.89
2023-02-06T15:43:25.709Z,84.13
2023-02-06T15:45:55.940Z,83.98
2023-02-06T15:48:36.798Z,83.78
2023-02-06T15:51:18.409Z,83.83
2023-02-06T15:53:48.229Z,83.56
2023-02-06T15:56:29.020Z,83.69
2023-02-06T15:58:58.674Z,83.78
2023-02-06T16:01:26.472Z,83.73
2023-02-06T16:03:59.277Z,84.03
2023-02-06T16:06:25.722Z,83.61
2023-02-06T16:08:56.182Z,82.98
2023-02-06T16:11:50.744Z,83.06
2023-02-06T16:14:21.547Z,83.57
2023-02-06T16:17:01.393Z,83.13
2023-02-06T16:19:46.794Z,83.51
2023-02-06T16:22:21.782Z,83.21
2023-02-06T16:24:49.737Z,82.98
2023-02-06T16:27:21.692Z,83.02
2023-02-06T16:29:52.464Z,83.67
2023-02-06T16:32:29.762Z,82.91
2023-02-06T16:34:56.348Z,83.57
2023-02-06T16:37:27.000Z,83.54
2023-02-06T16:39:54.167Z,83.96
2023-02-06T16:42:23.568Z,83.98
2023-02-06T16:44:58.038Z,83.62
2023-02-06T16:47:24.684Z,83.81
2023-02-06T16:49:51.962Z,83.77
2023-02-06T16:52:23.732Z,84.10
2023-02-06T16:54:50.435Z,84.03
2023-02-06T16:57:38.976Z,84.15
2023-02-06T17:00:09.415Z,84.42
2023-02-06T17:02:35.818Z,84.18
2023-02-06T17:05:06.808Z,84.15
2023-02-06T17:07:34.889Z,84.29
2023-02-06T17:10:01.845Z,84.51
2023-02-06T17:12:28.691Z,85.37
2023-02-06T17:14:55.152Z,85.23
2023-02-06T17:17:23.003Z,84.74
2023-02-06T17:19:51.764Z,84.88
2023-02-06T17:22:18.397Z,85.48
2023-02-06T17:24:44.772Z,85.87
2023-02-06T17:27:15.329Z,85.32
2023-02-06T17:29:41.761Z,85.69
2023-02-06T17:32:09.141Z,85.70
2023-02-06T17:34:37.261Z,85.70
2023-02-06T17:37:04.961Z,85.83
2023-02-06T17:39:31.320Z,86.17
2023-02-06T17:41:57.751Z,85.91
2023-02-06T17:44:24.291Z,85.70
2023-02-06T17:46:50.644Z,85.70
2023-02-06T17:49:17.356Z,85.89
2023-02-06T17:51:44.828Z,86.46
2023-02-06T17:54:12.319Z,86.72
2023-02-06T17:56:39.049Z,86.53
2023-02-06T17:59:05.505Z,86.56
2023-02-06T18:01:31.934Z,86.59
2023-02-06T18:04:00.670Z,86.18
2023-02-06T18:06:31.085Z,86.58
2023-02-06T18:08:57.432Z,86.77
2023-02-06T18:11:23.793Z,86.69
2023-02-06T18:13:50.651Z,86.19
2023-02-06T18:16:23.050Z,87.29
2023-02-06T18:18:50.128Z,86.54
2023-02-06T18:21:19.415Z,86.77
2023-02-06T18:23:47.030Z,86.94
2023-02-06T18:26:14.176Z,86.42
2023-02-06T18:28:40.858Z,86.59
2023-02-06T18:31:21.590Z,87.13
2023-02-06T18:33:48.048Z,87.26
2023-02-06T18:36:14.521Z,88.10
2023-02-06T18:38:41.399Z,87.78
2023-02-06T18:41:27.791Z,88.23
2023-02-06T18:43:54.190Z,88.32
2023-02-06T18:46:20.795Z,88.24
2023-02-06T18:48:47.369Z,88.43
2023-02-06T18:51:13.736Z,88.88
2023-02-06T18:53:40.095Z,88.55
2023-02-06T18:56:06.714Z,89.31
2023-02-06T18:58:33.397Z,88.15
2023-02-06T19:00:59.793Z,88.65
2023-02-06T19:03:26.163Z,89.09
2023-02-06T19:05:52.532Z,88.80
2023-02-06T19:08:19.572Z,89.09
2023-02-06T19:10:45.946Z,88.34
2023-02-06T19:13:12.341Z,88.84
2023-02-06T19:15:38.799Z,89.47
2023-02-06T19:18:05.987Z,89.27
2023-02-06T19:20:32.311Z,89.13
2023-02-06T19:22:58.672Z,89.12
2023-02-06T19:25:25.076Z,88.99
2023-02-06T19:27:51.480Z,89.56
2023-02-06T19:30:18.001Z,89.41
2023-02-06T19:32:44.436Z,89.58
2023-02-06T19:35:11.892Z,89.93
2023-02-06T19:37:38.243Z,89.64
2023-02-06T19:40:04.868Z,89.62
2023-02-06T19:42:31.246Z,89.32
2023-02-06T19:44:57.606Z,89.38
2023-02-06T19:47:24.056Z,89.47
2023-02-06T19:49:52.283Z,89.31
2023-02-06T19:52:19.173Z,89.70
2023-02-06T19:54:47.597Z,89.75
2023-02-06T19:57:14.796Z,90.22
2023-02-06T19:59:42.043Z,90.10
2023-02-06T20:02:14.279Z,90.09
2023-02-06T20:04:41.358Z,90.15
2023-02-06T20:07:07.726Z,90.23
2023-02-06T20:09:34.725Z,90.07
2023-02-06T20:12:01.075Z,89.97
2023-02-06T20:14:28.030Z,90.16
2023-02-06T20:16:54.940Z,90.08
2023-02-06T20:19:24.676Z,89.93
2023-02-06T20:21:54.116Z,89.91
2023-02-06T20:24:24.564Z,90.31
2023-02-06T20:26:55.940Z,89.90
2023-02-06T20:29:28.837Z,90.67
2023-02-06T20:31:56.241Z,90.76
2023-02-06T20:34:24.313Z,90.96
2023-02-06T20:36:51.482Z,91.03
2023-02-06T20:39:21.381Z,90.70
2023-02-06T20:41:49.509Z,90.96
2023-02-06T20:44:16.567Z,91.23
2023-02-06T20:46:43.548Z,90.90
2023-02-06T20:49:16.228Z,90.43
2023-02-06T20:51:42.949Z,90.86
2023-02-06T20:54:11.654Z,91.07
2023-02-06T20:56:39.609Z,90.41
2023-02-06T20:59:06.798Z,91.18
2023-02-06T21:01:33.659Z,91.18
2023-02-06T21:04:05.785Z,91.26
2023-02-06T21:06:34.316Z,90.71
2023-02-06T21:09:01.516Z,91.10
2023-02-06T21:11:30.446Z,90.65
2023-02-06T21:14:02.516Z,91.23
2023-02-06T21:16:30.455Z,91.53
2023-02-06T21:18:58.538Z,91.40
2023-02-06T21:21:32.735Z,91.11
2023-02-06T21:23:59.384Z,91.52
2023-02-06T21:26:26.928Z,91.00
2023-02-06T21:28:53.586Z,91.66
2023-02-06T21:31:23.566Z,90.99
2023-02-06T21:33:51.692Z,91.56
2023-02-06T21:36:18.791Z,91.08
2023-02-06T21:38:45.137Z,91.68
2023-02-06T21:41:14.893Z,91.30
2023-02-06T21:43:41.934Z,91.31
2023-02-06T21:46:10.018Z,91.29
2023-02-06T21:48:36.853Z,91.48
2023-02-06T21:51:22.936Z,91.08
2023-02-06T21:53:49.447Z,91.09
2023-02-06T21:56:19.740Z,91.31
2023-02-06T21:58:47.295Z,91.77
2023-02-06T22:01:22.314Z,91.05
2023-02-06T22:03:49.641Z,91.90
2023-02-06T22:06:16.609Z,91.28
2023-02-06T22:08:45.210Z,92.30
2023-02-06T22:11:28.304Z,92.21
2023-02-06T22:14:03.662Z,91.68
2023-02-06T22:16:30.726Z,92.24
2023-02-06T22:18:57.441Z,91.28
2023-02-06T22:21:26.371Z,91.08
2023-02-06T22:23:56.441Z,91.70
2023-02-06T22:26:22.943Z,91.43
2023-02-06T22:28:49.342Z,91.42
2023-02-06T22:31:17.451Z,92.48
2023-02-06T22:33:44.553Z,92.15
2023-02-06T22:36:13.957Z,91.80
2023-02-06T22:38:41.610Z,91.04
2023-02-06T22:41:11.007Z,91.64
2023-02-06T22:43:38.939Z,91.24
2023-02-06T22:46:06.645Z,91.46
2023-02-06T22:48:33.566Z,90.93
2023-02-06T22:51:07.579Z,90.98
2023-02-06T22:53:34.495Z,91.67
2023-02-06T22:56:22.332Z,90.74
2023-02-06T22:58:49.563Z,90.77
2023-02-06T23:01:17.768Z,91.44
2023-02-06T23:03:44.222Z,91.58
2023-02-06T23:06:13.364Z,91.61
2023-02-06T23:08:40.914Z,92.08
2023-02-06T23:11:08.626Z,90.77
2023-02-06T23:13:35.679Z,91.77
2023-02-06T23:16:02.644Z,90.55
2023-02-06T23:18:29.531Z,90.82
2023-02-06T23:21:05.026Z,91.35
2023-02-06T23:23:31.430Z,91.86
2023-02-06T23:25:57.891Z,90.90
2023-02-06T23:28:25.304Z,91.73
2023-02-06T23:30:52.697Z,90.93
2023-02-06T23:33:19.910Z,91.51
2023-02-06T23:35:46.556Z,91.77
2023-02-06T23:38:13.168Z,91.29
2023-02-06T23:40:39.805Z,91.12
2023-02-06T23:43:06.540Z,90.87
2023-02-06T23:45:33.817Z,91.42
2023-02-06T23:48:00.207Z,91.20
2023-02-06T23:50:27.049Z,91.02
2023-02-06T23:52:53.572Z,91.01
2023-02-06T23:55:21.291Z,91.00
2023-02-06T23:57:47.666Z,91.48
